createdAt,value
2019-01-04T00:00:23.587Z,13.07
2019-01-04T00:02:52.303Z,12.77
2019-01-04T00:05:20.782Z,12.07
2019-01-04T00:07:49.221Z,12.13
2019-01-04T00:10:18.022Z,12.43
2019-01-04T00:12:46.503Z,11.73
2019-01-04T00:15:15.028Z,11.43
2019-01-04T00:17:43.784Z,11.17
2019-01-04T00:20:12.239Z,10.90
2019-01-04T00:22:40.963Z,11.50
2019-01-04T00:25:09.466Z,11.33
2019-01-04T00:27:38.244Z,10.53
2019-01-04T00:30:10.015Z,11.13
2019-01-04T00:32:38.499Z,11.03
2019-01-04T00:35:07.790Z,10.13
2019-01-04T00:37:36.495Z,10.60
2019-01-04T00:40:07.538Z,10.20
2019-01-04T00:42:35.986Z,10.20
2019-01-04T00:45:06.245Z,11.10
2019-01-04T00:47:34.731Z,10.93
2019-01-04T00:50:04.404Z,10.20
2019-01-04T00:52:32.852Z,10.10
2019-01-04T00:55:04.359Z,11.10
2019-01-04T00:57:45.227Z,11.93
2019-01-04T01:00:48.178Z,11.33
2019-01-04T01:03:36.366Z,13.70
2019-01-04T01:06:13.886Z,14.33
2019-01-04T01:09:07.576Z,13.50
2019-01-04T01:11:57.183Z,13.37
2019-01-04T01:14:43.271Z,14.00
2019-01-04T01:17:26.958Z,14.13
2019-01-04T01:20:26.871Z,13.97
2019-01-04T01:23:04.256Z,12.83
2019-01-04T01:25:53.927Z,13.40
2019-01-04T01:28:37.385Z,13.60
2019-01-04T01:31:20.734Z,12.77
2019-01-04T01:34:00.761Z,12.20
2019-01-04T01:36:47.156Z,12.73
2019-01-04T01:39:47.379Z,13.17
2019-01-04T01:42:27.908Z,12.60
2019-01-04T01:45:23.728Z,11.93
2019-01-04T01:47:52.431Z,11.70
2019-01-04T01:50:29.727Z,11.37
2019-01-04T01:52:58.425Z,11.43
2019-01-04T01:55:26.864Z,11.73
2019-01-04T01:57:55.563Z,11.43
2019-01-04T02:00:24.012Z,10.70
2019-01-04T02:02:52.466Z,10.73
2019-01-04T02:05:20.924Z,10.57
2019-01-04T02:07:49.627Z,10.50
2019-01-04T02:10:18.134Z,10.70
2019-01-04T02:12:46.854Z,11.73
2019-01-04T02:15:15.315Z,11.80
2019-01-04T02:17:44.029Z,12.03
2019-01-04T02:20:12.480Z,11.70
2019-01-04T02:22:40.986Z,12.13
2019-01-04T02:25:09.717Z,11.63
2019-01-04T02:27:38.460Z,11.90
2019-01-04T02:30:07.847Z,12.30
2019-01-04T02:32:36.342Z,13.60
2019-01-04T02:35:05.127Z,14.53
2019-01-04T02:37:33.556Z,13.20
2019-01-04T02:40:02.252Z,12.13
2019-01-04T02:42:30.986Z,13.30
2019-01-04T02:44:59.439Z,13.27
2019-01-04T02:47:27.885Z,13.33
2019-01-04T02:49:56.322Z,12.90
2019-01-04T02:52:24.778Z,11.63
2019-01-04T02:54:53.220Z,12.67
2019-01-04T02:57:21.975Z,13.53
2019-01-04T02:59:50.417Z,12.80
2019-01-04T03:02:18.868Z,12.30
2019-01-04T03:04:47.563Z,12.13
2019-01-04T03:07:16.319Z,13.40
2019-01-04T03:09:44.769Z,13.73
2019-01-04T03:12:13.483Z,12.40
2019-01-04T03:14:42.183Z,11.77
2019-01-04T03:17:10.912Z,12.13
2019-01-04T03:19:39.644Z,11.60
2019-01-04T03:22:08.372Z,11.87
2019-01-04T03:24:36.803Z,11.47
2019-01-04T03:27:05.281Z,12.67
2019-01-04T03:29:34.027Z,12.37
2019-01-04T03:32:02.508Z,13.07
2019-01-04T03:34:31.001Z,13.37
2019-01-04T03:36:59.451Z,12.00
2019-01-04T03:39:27.902Z,12.90
2019-01-04T03:41:56.596Z,13.20
2019-01-04T03:44:25.053Z,12.63
2019-01-04T03:46:53.497Z,13.87
2019-01-04T03:49:21.953Z,12.73
2019-01-04T03:51:50.386Z,12.80
2019-01-04T03:54:19.107Z,13.60
2019-01-04T03:56:47.797Z,13.60
2019-01-04T03:59:16.490Z,13.87
2019-01-04T04:01:45.197Z,13.83
2019-01-04T04:04:13.709Z,12.57
2019-01-04T04:06:42.218Z,13.00
2019-01-04T04:09:10.935Z,13.23
2019-01-04T04:11:39.375Z,14.40
2019-01-04T04:14:08.080Z,14.50
2019-01-04T04:16:36.591Z,14.70
2019-01-04T04:19:05.306Z,14.20
2019-01-04T04:21:33.736Z,15.37
2019-01-04T04:24:02.521Z,15.10
2019-01-04T04:26:30.988Z,14.83
2019-01-04T04:28:59.501Z,15.00
2019-01-04T04:31:27.966Z,13.00
2019-01-04T04:33:56.459Z,13.47
2019-01-04T04:36:24.893Z,13.77
2019-01-04T04:38:53.379Z,13.90
2019-01-04T04:41:22.089Z,13.83
2019-01-04T04:43:50.550Z,13.60
2019-01-04T04:46:18.970Z,12.63
2019-01-04T04:48:47.409Z,13.90
2019-01-04T04:51:15.848Z,12.30
2019-01-04T04:53:44.302Z,13.03
2019-01-04T04:56:12.815Z,13.13
2019-01-04T04:58:41.508Z,12.50
2019-01-04T05:01:10.247Z,13.00
2019-01-04T05:03:38.704Z,12.37
2019-01-04T05:06:07.407Z,11.80
2019-01-04T05:08:35.847Z,12.37
2019-01-04T05:11:04.594Z,11.73
2019-01-04T05:13:33.085Z,12.10
2019-01-04T05:16:01.574Z,12.57
2019-01-04T05:18:30.046Z,13.33
2019-01-04T05:20:58.500Z,15.47
2019-01-04T05:23:26.945Z,13.83
2019-01-04T05:25:55.392Z,13.40
2019-01-04T05:28:23.833Z,13.80
2019-01-04T05:30:52.287Z,13.40
2019-01-04T05:33:20.753Z,13.47
2019-01-04T05:35:49.263Z,14.50
2019-01-04T05:38:17.983Z,14.10
2019-01-04T05:40:46.707Z,13.57
2019-01-04T05:43:15.122Z,13.67
2019-01-04T05:45:43.859Z,13.20
2019-01-04T05:48:12.296Z,14.13
2019-01-04T05:50:41.007Z,13.30
2019-01-04T05:53:09.714Z,12.33
2019-01-04T05:55:38.146Z,12.43
2019-01-04T05:58:06.864Z,12.83
2019-01-04T06:00:35.571Z,13.00
2019-01-04T06:03:04.260Z,13.13
2019-01-04T06:05:32.711Z,13.23
2019-01-04T06:08:01.424Z,12.57
2019-01-04T06:10:30.132Z,12.80
2019-01-04T06:12:58.880Z,12.47
2019-01-04T06:15:27.303Z,12.67
2019-01-04T06:17:56.041Z,12.77
2019-01-04T06:20:24.475Z,13.20
2019-01-04T06:22:53.213Z,13.60
2019-01-04T06:25:21.708Z,13.20
2019-01-04T06:27:50.407Z,13.53
2019-01-04T06:30:18.836Z,14.27
2019-01-04T06:32:47.296Z,14.97
2019-01-04T06:35:15.754Z,13.40
2019-01-04T06:37:44.507Z,14.73
2019-01-04T06:40:13.222Z,14.83
2019-01-04T06:42:41.679Z,15.03
2019-01-04T06:45:10.371Z,14.83
2019-01-04T06:47:38.941Z,14.80
2019-01-04T06:50:09.098Z,14.87
2019-01-04T06:52:37.799Z,14.90
2019-01-04T06:55:21.294Z,14.90
2019-01-04T06:57:49.718Z,14.70
2019-01-04T07:00:18.162Z,14.97
2019-01-04T07:02:46.872Z,15.57
2019-01-04T07:05:15.588Z,15.97
2019-01-04T07:07:44.090Z,16.10
2019-01-04T07:10:12.542Z,15.93
2019-01-04T07:12:40.991Z,16.30
2019-01-04T07:15:09.712Z,16.90
2019-01-04T07:17:38.442Z,16.00
2019-01-04T07:20:07.237Z,15.40
2019-01-04T07:22:35.719Z,15.47
2019-01-04T07:25:04.642Z,14.30
2019-01-04T07:27:33.347Z,14.10
2019-01-04T07:30:01.802Z,14.57
2019-01-04T07:32:30.307Z,14.50
2019-01-04T07:34:58.835Z,14.03
2019-01-04T07:37:27.266Z,13.80
2019-01-04T07:39:56.038Z,14.47
2019-01-04T07:42:24.484Z,14.00
2019-01-04T07:44:53.174Z,13.83
2019-01-04T07:47:21.618Z,14.20
2019-01-04T07:49:50.078Z,14.23
2019-01-04T07:52:18.511Z,13.90
2019-01-04T07:54:47.061Z,16.00
2019-01-04T07:57:15.571Z,14.77
2019-01-04T07:59:44.275Z,15.40
2019-01-04T08:02:30.303Z,15.40
2019-01-04T08:04:58.800Z,14.63
2019-01-04T08:07:27.235Z,14.90
2019-01-04T08:09:55.700Z,15.43
2019-01-04T08:12:24.127Z,15.70
2019-01-04T08:14:52.595Z,15.17
2019-01-04T08:17:21.278Z,16.37
2019-01-04T08:19:49.720Z,15.47
2019-01-04T08:22:18.430Z,14.90
2019-01-04T08:24:47.119Z,14.53
2019-01-04T08:27:15.991Z,14.00
2019-01-04T08:29:44.433Z,14.03
2019-01-04T08:32:12.984Z,14.10
2019-01-04T08:34:41.447Z,13.90
2019-01-04T08:37:09.900Z,13.63
2019-01-04T08:39:38.349Z,13.90
2019-01-04T08:42:06.799Z,14.40
2019-01-04T08:44:35.592Z,13.50
2019-01-04T08:47:04.117Z,13.20
2019-01-04T08:49:32.668Z,12.93
2019-01-04T08:52:01.420Z,11.70
2019-01-04T08:54:30.123Z,12.40
2019-01-04T08:56:58.853Z,12.90
2019-01-04T08:59:27.597Z,12.40
2019-01-04T09:01:56.534Z,12.13
2019-01-04T09:04:25.382Z,10.83
2019-01-04T09:06:54.289Z,10.50
2019-01-04T09:09:22.762Z,11.73
2019-01-04T09:11:51.535Z,11.03
2019-01-04T09:14:19.969Z,10.30
2019-01-04T09:16:48.816Z,10.27
2019-01-04T09:19:17.244Z,10.80
2019-01-04T09:21:45.979Z,9.63
2019-01-04T09:24:14.450Z,9.20
2019-01-04T09:26:43.175Z,9.70
2019-01-04T09:29:11.661Z,9.50
2019-01-04T09:31:40.220Z,9.30
2019-01-04T09:34:08.710Z,9.23
2019-01-04T09:36:37.161Z,9.20
2019-01-04T09:39:07.075Z,9.20
2019-01-04T09:41:36.981Z,9.50
2019-01-04T09:44:05.687Z,8.77
2019-01-04T09:46:34.153Z,8.57
2019-01-04T09:49:02.952Z,9.43
2019-01-04T09:51:31.796Z,7.03
2019-01-04T09:54:00.292Z,9.77
2019-01-04T09:56:29.019Z,9.40
2019-01-04T09:58:57.768Z,10.30
2019-01-04T10:01:26.203Z,9.00
2019-01-04T10:03:54.715Z,8.53
2019-01-04T10:06:23.197Z,8.57
2019-01-04T10:08:52.056Z,9.40
2019-01-04T10:11:20.538Z,7.90
2019-01-04T10:13:49.021Z,7.47
2019-01-04T10:16:17.779Z,7.80
2019-01-04T10:18:46.226Z,7.40
2019-01-04T10:21:14.955Z,7.87
2019-01-04T10:23:43.418Z,7.90
2019-01-04T10:26:11.856Z,7.50
2019-01-04T10:28:40.600Z,7.13
2019-01-04T10:31:09.119Z,6.93
2019-01-04T10:33:37.875Z,6.80
2019-01-04T10:36:06.339Z,6.30
2019-01-04T10:38:34.880Z,5.77
2019-01-04T10:41:03.567Z,5.87
2019-01-04T10:43:32.314Z,5.50
2019-01-04T10:46:00.757Z,4.60
2019-01-04T10:48:29.483Z,4.40
2019-01-04T10:50:57.982Z,5.37
2019-01-04T10:53:26.700Z,5.30
2019-01-04T10:55:55.582Z,4.80
2019-01-04T10:58:24.075Z,4.70
2019-01-04T11:00:52.808Z,5.40
2019-01-04T11:03:21.320Z,4.63
2019-01-04T11:05:49.848Z,5.00
2019-01-04T11:08:18.434Z,5.27
2019-01-04T11:10:46.923Z,5.73
2019-01-04T11:13:15.679Z,5.27
2019-01-04T11:15:44.143Z,5.97
2019-01-04T11:18:12.580Z,5.73
2019-01-04T11:20:42.778Z,5.70
2019-01-04T11:23:35.049Z,5.83
2019-01-04T11:26:12.483Z,5.57
2019-01-04T11:28:53.046Z,5.30
2019-01-04T11:31:30.473Z,5.93
2019-01-04T11:34:14.429Z,5.70
2019-01-04T11:37:05.559Z,6.40
2019-01-04T11:39:40.047Z,5.17
2019-01-04T11:42:35.418Z,5.60
2019-01-04T11:45:26.233Z,5.30
2019-01-04T11:48:01.056Z,6.57
2019-01-04T11:50:38.304Z,5.40
2019-01-04T11:53:10.216Z,6.07
2019-01-04T11:55:39.305Z,7.23
2019-01-04T11:58:08.351Z,8.00
2019-01-04T12:00:37.432Z,8.27
2019-01-04T12:03:06.036Z,8.20
2019-01-04T12:05:34.841Z,9.00
2019-01-04T12:08:03.701Z,8.37
2019-01-04T12:10:32.218Z,9.27
2019-01-04T12:13:01.044Z,9.50
2019-01-04T12:15:29.563Z,9.20
2019-01-04T12:17:58.039Z,9.13
2019-01-04T12:20:26.541Z,10.07
2019-01-04T12:22:55.323Z,8.30
2019-01-04T12:25:24.449Z,9.90
2019-01-04T12:27:53.059Z,10.73
2019-01-04T12:30:22.150Z,10.67
2019-01-04T12:32:51.185Z,9.93
2019-01-04T12:35:20.134Z,9.80
2019-01-04T12:37:48.852Z,10.10
2019-01-04T12:40:17.743Z,10.30
2019-01-04T12:42:46.503Z,10.60
2019-01-04T12:45:15.481Z,10.70
2019-01-04T12:47:44.369Z,11.53
2019-01-04T12:50:13.203Z,9.97
2019-01-04T12:52:41.717Z,11.60
2019-01-04T12:55:10.712Z,10.87
2019-01-04T12:57:39.439Z,11.50
2019-01-04T13:00:11.309Z,10.40
2019-01-04T13:02:40.386Z,9.93
2019-01-04T13:05:09.467Z,11.00
2019-01-04T13:07:38.536Z,10.67
2019-01-04T13:10:08.048Z,10.37
2019-01-04T13:12:37.037Z,10.40
2019-01-04T13:15:06.929Z,10.20
2019-01-04T13:17:35.683Z,10.57
2019-01-04T13:20:04.644Z,10.40
2019-01-04T13:22:33.162Z,9.93
2019-01-04T13:25:01.611Z,10.30
2019-01-04T13:27:30.343Z,10.70
2019-01-04T13:29:59.137Z,10.60
2019-01-04T13:32:27.932Z,12.20
2019-01-04T13:34:56.907Z,10.87
2019-01-04T13:37:25.424Z,12.43
2019-01-04T13:39:54.580Z,11.73
2019-01-04T13:42:23.130Z,12.20
2019-01-04T13:44:52.334Z,11.70
2019-01-04T13:47:21.404Z,11.87
2019-01-04T13:49:50.656Z,12.30
2019-01-04T13:52:19.399Z,12.97
2019-01-04T13:54:48.446Z,13.30
2019-01-04T13:57:17.090Z,13.23
2019-01-04T13:59:45.974Z,13.30
2019-01-04T14:02:15.594Z,13.23
2019-01-04T14:04:44.280Z,13.10
2019-01-04T14:07:13.065Z,14.00
2019-01-04T14:09:42.214Z,14.17
2019-01-04T14:12:11.088Z,14.27
2019-01-04T14:14:39.710Z,13.90
2019-01-04T14:17:08.391Z,14.00
2019-01-04T14:19:37.329Z,14.53
2019-01-04T14:22:06.470Z,16.30
2019-01-04T14:24:35.447Z,14.77
2019-01-04T14:27:04.202Z,15.60
2019-01-04T14:29:33.370Z,14.70
2019-01-04T14:32:02.167Z,17.43
2019-01-04T14:34:31.308Z,15.87
2019-01-04T14:37:00.095Z,15.70
2019-01-04T14:39:28.653Z,15.80
2019-01-04T14:41:57.486Z,15.13
2019-01-04T14:44:26.625Z,17.10
2019-01-04T14:46:55.776Z,16.73
2019-01-04T14:49:26.612Z,16.87
2019-01-04T14:51:55.812Z,17.13
2019-01-04T14:54:24.330Z,15.80
2019-01-04T14:56:53.137Z,15.27
2019-01-04T14:59:21.873Z,16.90
2019-01-04T15:01:50.659Z,16.13
2019-01-04T15:04:19.741Z,17.10
2019-01-04T15:06:48.395Z,15.03
2019-01-04T15:09:17.141Z,16.00
2019-01-04T15:11:45.914Z,16.83
2019-01-04T15:14:15.068Z,15.33
2019-01-04T15:16:43.881Z,16.27
2019-01-04T15:19:12.348Z,20.43
2019-01-04T15:21:40.816Z,17.67
2019-01-04T15:24:09.419Z,15.73
2019-01-04T15:26:38.350Z,15.87
2019-01-04T15:29:07.236Z,15.13
2019-01-04T15:31:35.732Z,16.23
2019-01-04T15:34:04.284Z,16.33
2019-01-04T15:36:32.792Z,15.60
2019-01-04T15:39:01.229Z,16.50
2019-01-04T15:41:29.786Z,16.23
2019-01-04T15:43:58.227Z,14.87
2019-01-04T15:46:27.002Z,16.93
2019-01-04T15:48:55.534Z,15.93
2019-01-04T15:51:24.055Z,15.70
2019-01-04T15:53:53.245Z,14.73
2019-01-04T15:56:22.203Z,15.20
2019-01-04T15:58:50.996Z,16.53
2019-01-04T16:01:19.528Z,15.57
2019-01-04T16:03:48.174Z,14.43
2019-01-04T16:06:16.969Z,15.20
2019-01-04T16:08:45.977Z,15.50
2019-01-04T16:11:14.723Z,15.77
2019-01-04T16:13:43.894Z,14.70
2019-01-04T16:16:13.047Z,14.53
2019-01-04T16:18:42.236Z,15.27
2019-01-04T16:21:11.224Z,14.10
2019-01-04T16:23:39.790Z,15.23
2019-01-04T16:26:08.319Z,14.73
2019-01-04T16:28:37.301Z,15.40
2019-01-04T16:31:05.876Z,13.67
2019-01-04T16:33:34.618Z,13.20
2019-01-04T16:36:03.168Z,13.40
2019-01-04T16:38:31.686Z,14.67
2019-01-04T16:41:00.295Z,12.63
2019-01-04T16:43:29.064Z,14.70
2019-01-04T16:45:58.251Z,13.60
2019-01-04T16:48:26.783Z,12.73
2019-01-04T16:50:55.346Z,13.03
2019-01-04T16:53:24.113Z,12.90
2019-01-04T16:55:53.317Z,13.20
2019-01-04T16:58:22.460Z,12.60
2019-01-04T17:00:51.038Z,13.50
2019-01-04T17:03:20.087Z,13.60
2019-01-04T17:05:48.629Z,14.47
2019-01-04T17:08:17.285Z,13.27
2019-01-04T17:10:46.053Z,13.60
2019-01-04T17:13:15.221Z,15.20
2019-01-04T17:15:44.037Z,15.03
2019-01-04T17:18:12.768Z,15.37
2019-01-04T17:20:41.739Z,15.60
2019-01-04T17:23:10.539Z,14.50
2019-01-04T17:25:39.688Z,14.80
2019-01-04T17:28:08.476Z,13.53
2019-01-04T17:30:37.232Z,15.37
2019-01-04T17:33:05.769Z,15.37
2019-01-04T17:35:34.242Z,14.27
2019-01-04T17:38:03.383Z,14.87
2019-01-04T17:40:32.413Z,15.43
2019-01-04T17:43:01.154Z,15.30
2019-01-04T17:45:29.883Z,15.37
2019-01-04T17:47:58.475Z,15.20
2019-01-04T17:50:27.244Z,14.77
2019-01-04T17:52:56.063Z,13.77
2019-01-04T17:55:25.184Z,15.67
2019-01-04T17:57:53.856Z,15.57
2019-01-04T18:00:23.451Z,15.00
2019-01-04T18:02:52.279Z,16.97
2019-01-04T18:05:21.391Z,16.70
2019-01-04T18:07:50.475Z,18.00
2019-01-04T18:10:19.388Z,17.20
2019-01-04T18:12:48.565Z,18.00
2019-01-04T18:15:17.756Z,17.77
2019-01-04T18:17:46.848Z,17.50
2019-01-04T18:20:15.831Z,16.63
2019-01-04T18:22:44.345Z,17.90
2019-01-04T18:25:12.982Z,17.37
2019-01-04T18:27:42.135Z,19.90
2019-01-04T18:30:11.030Z,19.17
2019-01-04T18:32:40.130Z,19.13
2019-01-04T18:35:08.659Z,20.07
2019-01-04T18:37:37.864Z,19.40
2019-01-04T18:40:08.732Z,22.30
2019-01-04T18:42:37.522Z,24.13
2019-01-04T18:45:06.402Z,24.50
2019-01-04T18:47:39.323Z,21.67
2019-01-04T18:50:08.218Z,21.30
2019-01-04T18:52:36.890Z,22.07
2019-01-04T18:55:05.987Z,21.90
2019-01-04T18:57:34.940Z,23.37
2019-01-04T19:00:04.629Z,22.30
2019-01-04T19:02:33.708Z,21.40
2019-01-04T19:05:02.448Z,22.07
2019-01-04T19:07:31.221Z,22.80
2019-01-04T19:10:00.157Z,22.30
2019-01-04T19:12:28.845Z,23.50
2019-01-04T19:14:57.946Z,22.83
2019-01-04T19:17:26.699Z,22.90
2019-01-04T19:19:55.764Z,22.23
2019-01-04T19:22:24.251Z,21.20
2019-01-04T19:24:52.786Z,21.47
2019-01-04T19:27:21.277Z,20.77
2019-01-04T19:29:49.762Z,22.07
2019-01-04T19:32:18.496Z,23.00
2019-01-04T19:34:47.234Z,24.33
2019-01-04T19:37:15.919Z,24.30
2019-01-04T19:39:44.632Z,24.97
2019-01-04T19:42:13.095Z,24.47
2019-01-04T19:44:41.843Z,23.27
2019-01-04T19:47:10.633Z,24.80
2019-01-04T19:49:39.360Z,26.00
2019-01-04T19:52:08.082Z,26.80
2019-01-04T19:54:36.538Z,25.87
2019-01-04T19:57:04.986Z,26.60
2019-01-04T19:59:33.727Z,27.40
2019-01-04T20:02:02.207Z,27.30
2019-01-04T20:04:30.723Z,29.13
2019-01-04T20:07:45.895Z,28.50
2019-01-04T20:11:08.347Z,26.43
2019-01-04T20:14:00.515Z,27.40
2019-01-04T20:16:39.531Z,27.93
2019-01-04T20:19:10.110Z,28.90
2019-01-04T20:21:55.677Z,26.23
2019-01-04T20:24:29.039Z,26.77
2019-01-04T20:26:59.368Z,29.30
2019-01-04T20:29:45.561Z,28.50
2019-01-04T20:32:15.949Z,29.37
2019-01-04T20:34:46.289Z,30.90
2019-01-04T20:37:28.484Z,30.00
2019-01-04T20:40:04.426Z,29.20
2019-01-04T20:42:40.445Z,30.03
2019-01-04T20:45:25.732Z,29.17
2019-01-04T20:48:12.328Z,27.50
2019-01-04T20:51:00.539Z,28.30
2019-01-04T20:53:36.537Z,27.80
2019-01-04T20:56:12.500Z,27.93
2019-01-04T20:58:43.165Z,29.80
2019-01-04T21:01:16.740Z,27.50
2019-01-04T21:03:50.131Z,26.60
2019-01-04T21:06:23.090Z,25.43
2019-01-04T21:08:58.987Z,26.10
2019-01-04T21:11:46.265Z,26.30
2019-01-04T21:14:32.665Z,26.83
2019-01-04T21:17:21.114Z,23.67
2019-01-04T21:20:09.281Z,26.80
2019-01-04T21:22:39.734Z,24.27
2019-01-04T21:25:10.041Z,24.70
2019-01-04T21:27:40.389Z,26.57
2019-01-04T21:30:25.652Z,26.73
2019-01-04T21:33:10.982Z,28.80
2019-01-04T21:35:43.600Z,27.40
2019-01-04T21:38:29.743Z,27.67
2019-01-04T21:41:16.730Z,26.50
2019-01-04T21:43:50.208Z,27.40
2019-01-04T21:46:20.646Z,27.83
2019-01-04T21:49:07.290Z,26.50
2019-01-04T21:51:55.805Z,27.37
2019-01-04T21:54:25.999Z,28.20
2019-01-04T21:57:12.464Z,27.10
2019-01-04T21:59:51.791Z,27.87
2019-01-04T22:02:36.918Z,29.80
2019-01-04T22:05:13.769Z,27.73
2019-01-04T22:07:46.742Z,28.47
2019-01-04T22:10:17.508Z,27.20
2019-01-04T22:12:50.728Z,27.10
2019-01-04T22:15:27.131Z,28.53
2019-01-04T22:17:57.755Z,27.70
2019-01-04T22:20:44.289Z,27.63
2019-01-04T22:23:16.827Z,27.10
2019-01-04T22:25:49.839Z,28.00
2019-01-04T22:28:20.251Z,27.47
2019-01-04T22:30:59.746Z,28.67
2019-01-04T22:33:36.519Z,27.37
2019-01-04T22:36:23.159Z,26.77
2019-01-04T22:38:56.015Z,26.60
2019-01-04T22:41:41.281Z,27.57
2019-01-04T22:44:11.520Z,25.63
2019-01-04T22:46:47.266Z,24.20
2019-01-04T22:49:17.699Z,24.90
2019-01-04T22:51:51.208Z,23.87
2019-01-04T22:54:27.373Z,23.17
2019-01-04T22:57:04.110Z,22.27
2019-01-04T22:59:50.309Z,23.30
2019-01-04T23:02:20.749Z,22.00
2019-01-04T23:04:53.755Z,22.23
2019-01-04T23:07:23.848Z,20.10
2019-01-04T23:09:56.770Z,19.97
2019-01-04T23:12:29.479Z,19.67
2019-01-04T23:15:11.784Z,17.47
2019-01-04T23:17:58.596Z,18.50
2019-01-04T23:20:37.830Z,17.47
2019-01-04T23:23:26.169Z,17.60
2019-01-04T23:26:12.678Z,15.53
2019-01-04T23:28:58.839Z,15.43
2019-01-04T23:31:38.068Z,16.83
2019-01-04T23:34:20.804Z,15.57
2019-01-04T23:36:51.243Z,15.80
2019-01-04T23:39:23.978Z,16.40
2019-01-04T23:42:12.566Z,16.07
2019-01-04T23:44:45.217Z,15.00
2019-01-04T23:47:31.332Z,15.43
2019-01-04T23:50:01.443Z,15.80
2019-01-04T23:52:49.964Z,15.50
2019-01-04T23:55:23.027Z,14.97
2019-01-04T23:58:08.057Z,13.80
